Time;durP1;ratioP1;P1;durP2;ratioP2;P2;SDS_P1;SDS_P2;PMS_P1;PMS_P2;Temp;Humidity;BMP_temperature;BMP_pressure;BME280_temperature;BME280_humidity;BME280_pressure;Samples;Min_cycle;Max_cycle;Signal;HPM_P1;HPM_P2
2023/12/01 00:01:42;;;;;;;25.43;23.10;;;;;;;;;;5061135;28;20531;-38
2023/12/01 00:04:10;;;;;;;24.40;22.50;;;;;;;;;;5060443;28;20455;-41
2023/12/01 00:06:38;;;;;;;25.20;23.03;;;;;;;;;;5061842;28;20447;-36
2023/12/01 00:09:06;;;;;;;25.10;23.10;;;;;;;;;;5061656;28;20913;-38
2023/12/01 00:11:33;;;;;;;26.00;23.93;;;;;;;;;;5061306;28;20435;-39
2023/12/01 00:14:01;;;;;;;25.10;22.73;;;;;;;;;;5060482;28;20545;-38
2023/12/01 00:16:29;;;;;;;24.53;22.70;;;;;;;;;;5061573;28;20481;-38
2023/12/01 00:18:56;;;;;;;24.87;22.73;;;;;;;;;;5060844;28;20471;-41
2023/12/01 00:21:25;;;;;;;24.63;22.60;;;;;;;;;;5061954;28;20465;-39
2023/12/01 00:23:53;;;;;;;23.90;21.67;;;;;;;;;;5060549;28;20470;-38
2023/12/01 00:26:20;;;;;;;25.17;23.00;;;;;;;;;;5060855;28;20510;-40
2023/12/01 00:28:48;;;;;;;24.43;22.53;;;;;;;;;;5061611;28;20463;-40
2023/12/01 00:31:15;;;;;;;24.40;22.33;;;;;;;;;;5052697;28;20436;-40
2023/12/01 00:33:43;;;;;;;24.97;22.57;;;;;;;;;;5061504;28;20432;-38
2023/12/01 00:36:11;;;;;;;24.17;22.27;;;;;;;;;;5061168;28;20880;-38
2023/12/01 00:38:40;;;;;;;24.67;22.70;;;;;;;;;;5053677;28;21041;-42
2023/12/01 00:41:08;;;;;;;25.43;23.07;;;;;;;;;;5059201;28;20501;-38
2023/12/01 00:43:36;;;;;;;24.50;22.37;;;;;;;;;;5060443;28;20492;-38
2023/12/01 00:46:05;;;;;;;23.67;21.70;;;;;;;;;;5060970;28;20481;-39
2023/12/01 00:48:33;;;;;;;26.43;23.80;;;;;;;;;;5056223;28;20456;-38
2023/12/01 00:51:01;;;;;;;25.30;23.30;;;;;;;;;;5056458;28;20466;-39
2023/12/01 00:53:30;;;;;;;26.17;24.07;;;;;;;;;;5052681;28;20443;-39
2023/12/01 00:55:59;;;;;;;27.63;25.43;;;;;;;;;;5059848;28;20471;-42
2023/12/01 00:58:26;;;;;;;25.50;23.40;;;;;;;;;;5060385;28;21008;-39
2023/12/01 01:00:54;;;;;;;27.13;24.70;;;;;;;;;;5059110;28;20459;-39
2023/12/01 01:03:22;;;;;;;26.40;24.20;;;;;;;;;;5060191;28;20427;-38
2023/12/01 01:05:49;;;;;;;25.40;23.47;;;;;;;;;;5060278;28;20506;-38
2023/12/01 01:08:17;;;;;;;24.73;22.83;;;;;;;;;;5060489;28;20458;-38
2023/12/01 01:10:45;;;;;;;25.33;23.17;;;;;;;;;;5060115;28;20435;-41
2023/12/01 01:13:14;;;;;;;24.70;22.67;;;;;;;;;;5059452;28;20535;-38
2023/12/01 01:15:41;;;;;;;25.93;23.23;;;;;;;;;;5059933;28;20521;-39
2023/12/01 01:18:09;;;;;;;24.77;22.57;;;;;;;;;;5059472;28;20534;-39
2023/12/01 01:20:37;;;;;;;26.97;24.50;;;;;;;;;;5059992;28;20439;-39
2023/12/01 01:23:04;;;;;;;26.33;24.10;;;;;;;;;;5060213;28;20985;-42
2023/12/01 01:25:32;;;;;;;24.43;22.17;;;;;;;;;;5055047;28;20460;-38
2023/12/01 01:28:00;;;;;;;26.30;23.80;;;;;;;;;;5056822;28;20447;-43
2023/12/01 01:30:29;;;;;;;23.97;22.00;;;;;;;;;;5060913;28;20466;-39
2023/12/01 01:32:56;;;;;;;24.10;22.00;;;;;;;;;;5059794;28;20463;-39
2023/12/01 01:35:24;;;;;;;25.87;23.37;;;;;;;;;;5059656;28;20529;-39
2023/12/01 01:37:51;;;;;;;27.17;24.77;;;;;;;;;;5059948;28;20572;-39
2023/12/01 01:40:19;;;;;;;28.43;25.73;;;;;;;;;;5059750;28;20431;-40
2023/12/01 01:42:46;;;;;;;31.50;28.37;;;;;;;;;;5059733;28;20489;-39
2023/12/01 01:45:14;;;;;;;26.43;24.03;;;;;;;;;;5059129;28;21041;-38
2023/12/01 01:47:43;;;;;;;26.87;24.60;;;;;;;;;;5060165;28;20520;-41
2023/12/01 01:50:11;;;;;;;26.80;24.40;;;;;;;;;;5059967;28;20441;-38
2023/12/01 01:52:40;;;;;;;32.03;28.93;;;;;;;;;;5051256;28;20435;-38
2023/12/01 01:55:08;;;;;;;47.00;33.27;;;;;;;;;;5059366;28;20463;-39
2023/12/01 01:57:37;;;;;;;32.97;29.87;;;;;;;;;;5057861;28;20478;-40
2023/12/01 02:00:06;;;;;;;33.97;29.90;;;;;;;;;;5058610;28;20439;-40
2023/12/01 02:02:34;;;;;;;31.43;28.20;;;;;;;;;;5058504;28;20854;-42
2023/12/01 02:05:04;;;;;;;29.53;26.73;;;;;;;;;;5058465;28;20485;-42
2023/12/01 02:07:32;;;;;;;31.60;28.40;;;;;;;;;;5052454;28;20451;-40
2023/12/01 02:10:00;;;;;;;30.37;27.17;;;;;;;;;;5059571;28;20443;-42
2023/12/01 02:12:27;;;;;;;29.70;27.00;;;;;;;;;;5050404;28;20482;-38
2023/12/01 02:14:55;;;;;;;25.63;23.40;;;;;;;;;;5058832;28;20881;-38
2023/12/01 02:17:22;;;;;;;27.50;25.30;;;;;;;;;;5058953;28;20479;-40
2023/12/01 02:19:51;;;;;;;28.20;25.80;;;;;;;;;;5052507;28;20440;-42
2023/12/01 02:22:20;;;;;;;27.80;25.60;;;;;;;;;;5049162;28;20435;-40
2023/12/01 02:24:47;;;;;;;26.20;24.17;;;;;;;;;;5057692;28;20487;-38
2023/12/01 02:27:15;;;;;;;26.10;24.10;;;;;;;;;;5059093;28;20456;-43
2023/12/01 02:29:43;;;;;;;26.17;24.17;;;;;;;;;;5059522;28;20497;-42
2023/12/01 02:32:10;;;;;;;28.47;26.13;;;;;;;;;;5059270;28;20969;-39
2023/12/01 02:34:38;;;;;;;26.90;24.90;;;;;;;;;;5058162;28;21060;-38
2023/12/01 02:37:06;;;;;;;25.93;23.87;;;;;;;;;;5058490;28;20561;-38
2023/12/01 02:39:36;;;;;;;28.70;26.33;;;;;;;;;;5059574;28;20470;-41
2023/12/01 02:42:04;;;;;;;28.67;26.43;;;;;;;;;;5058558;28;20527;-42
2023/12/01 02:44:32;;;;;;;28.00;25.80;;;;;;;;;;5054142;28;20528;-41
2023/12/01 02:46:59;;;;;;;28.00;25.80;;;;;;;;;;5045873;28;20575;-39
2023/12/01 02:49:27;;;;;;;26.93;24.93;;;;;;;;;;5056050;28;20452;-38
2023/12/01 02:51:55;;;;;;;26.43;24.17;;;;;;;;;;5045905;28;20486;-38
2023/12/01 02:54:23;;;;;;;25.47;23.33;;;;;;;;;;5058276;28;20843;-39
2023/12/01 02:56:52;;;;;;;25.67;23.67;;;;;;;;;;5058669;28;20513;-41
2023/12/01 02:59:19;;;;;;;25.40;23.33;;;;;;;;;;5058896;28;20495;-38
2023/12/01 03:01:47;;;;;;;27.00;24.37;;;;;;;;;;5059350;28;20841;-40
2023/12/01 03:04:15;;;;;;;29.23;26.53;;;;;;;;;;5057532;28;20562;-40
2023/12/01 03:06:43;;;;;;;26.10;23.90;;;;;;;;;;5058782;28;20493;-40
2023/12/01 03:09:16;;;;;;;28.27;26.07;;;;;;;;;;5058577;28;20772;-37
2023/12/01 03:11:46;;;;;;;26.67;24.47;;;;;;;;;;5058935;28;20958;-39
2023/12/01 03:14:16;;;;;;;28.57;26.07;;;;;;;;;;5057206;28;20829;-38
2023/12/01 03:16:44;;;;;;;26.00;24.00;;;;;;;;;;5057899;28;20431;-42
2023/12/01 03:19:12;;;;;;;26.50;24.33;;;;;;;;;;5056008;28;20835;-39
2023/12/01 03:21:40;;;;;;;25.47;23.50;;;;;;;;;;5058217;28;20427;-38
2023/12/01 03:24:09;;;;;;;25.67;23.77;;;;;;;;;;5061327;28;20447;-39
2023/12/01 03:26:36;;;;;;;25.47;23.37;;;;;;;;;;5062063;28;20446;-38
2023/12/01 03:29:04;;;;;;;25.50;23.47;;;;;;;;;;5062288;28;20447;-38
2023/12/01 03:31:33;;;;;;;26.27;24.37;;;;;;;;;;5054017;28;20431;-39
2023/12/01 03:34:01;;;;;;;26.93;24.70;;;;;;;;;;5061624;28;20438;-43
2023/12/01 03:36:29;;;;;;;26.60;24.50;;;;;;;;;;5061900;28;20443;-39
2023/12/01 03:38:57;;;;;;;28.00;26.00;;;;;;;;;;5062377;28;20475;-38
2023/12/01 03:41:24;;;;;;;26.47;24.00;;;;;;;;;;5062216;28;20538;-37
2023/12/01 03:43:52;;;;;;;24.63;22.63;;;;;;;;;;5060852;28;20518;-39
2023/12/01 03:46:20;;;;;;;28.97;26.03;;;;;;;;;;5062224;28;20958;-39
2023/12/01 03:48:49;;;;;;;30.40;26.97;;;;;;;;;;5061442;28;20459;-40
2023/12/01 03:51:16;;;;;;;45.00;40.50;;;;;;;;;;5059950;28;20427;-41
2023/12/01 03:53:44;;;;;;;39.57;35.47;;;;;;;;;;5054087;28;20443;-42
2023/12/01 03:56:11;;;;;;;41.80;37.90;;;;;;;;;;5061121;28;20510;-40
2023/12/01 03:58:39;;;;;;;34.57;31.77;;;;;;;;;;5061098;28;20549;-41
2023/12/01 04:01:07;;;;;;;26.83;24.43;;;;;;;;;;5060048;28;20526;-44
2023/12/01 04:03:34;;;;;;;25.87;23.47;;;;;;;;;;5053984;28;20431;-45
2023/12/01 04:06:03;;;;;;;26.20;23.70;;;;;;;;;;5053277;28;20458;-40
2023/12/01 04:08:31;;;;;;;26.33;24.10;;;;;;;;;;5053622;28;20993;-46
2023/12/01 04:10:59;;;;;;;26.27;24.23;;;;;;;;;;5053655;28;20937;-45
2023/12/01 04:13:27;;;;;;;29.17;26.77;;;;;;;;;;5053420;28;20439;-41
2023/12/01 04:15:55;;;;;;;26.93;24.60;;;;;;;;;;5053315;28;20869;-43
2023/12/01 04:18:22;;;;;;;25.30;22.90;;;;;;;;;;5053127;28;20510;-39
2023/12/01 04:20:50;;;;;;;25.07;22.83;;;;;;;;;;5053410;28;21062;-48
2023/12/01 04:23:19;;;;;;;25.63;22.87;;;;;;;;;;5053419;28;20482;-44
2023/12/01 04:25:47;;;;;;;24.70;22.70;;;;;;;;;;5053172;28;20571;-43
2023/12/01 04:28:15;;;;;;;24.77;22.57;;;;;;;;;;5053427;28;20875;-41
2023/12/01 04:30:43;;;;;;;24.77;22.60;;;;;;;;;;5053422;28;20439;-41
2023/12/01 04:33:13;;;;;;;26.50;23.90;;;;;;;;;;5036919;28;20921;-39
2023/12/01 04:35:41;;;;;;;23.63;21.70;;;;;;;;;;5051660;28;20542;-42
2023/12/01 04:38:09;;;;;;;25.30;23.20;;;;;;;;;;5053066;28;20478;-42
2023/12/01 04:40:38;;;;;;;25.57;23.47;;;;;;;;;;5045508;28;20895;-41
2023/12/01 04:43:06;;;;;;;24.90;22.77;;;;;;;;;;5053366;28;20439;-44
2023/12/01 04:45:35;;;;;;;23.93;21.87;;;;;;;;;;5041182;28;20510;-46
2023/12/01 04:48:07;;;;;;;24.13;22.13;;;;;;;;;;5047239;28;20530;-44
2023/12/01 04:50:40;;;;;;;25.17;23.07;;;;;;;;;;5041028;28;20520;-42
2023/12/01 04:53:08;;;;;;;25.53;23.40;;;;;;;;;;5048826;28;20489;-45
2023/12/01 04:55:36;;;;;;;25.50;23.40;;;;;;;;;;5052460;28;20475;-40
2023/12/01 04:58:04;;;;;;;25.93;23.77;;;;;;;;;;5052900;28;20479;-40
2023/12/01 05:00:32;;;;;;;24.23;21.97;;;;;;;;;;5044741;28;20493;-43
2023/12/01 05:03:01;;;;;;;24.80;22.93;;;;;;;;;;5052271;28;20534;-40
2023/12/01 05:05:30;;;;;;;26.47;23.97;;;;;;;;;;5052291;28;20463;-42
2023/12/01 05:07:58;;;;;;;27.30;24.87;;;;;;;;;;5053032;28;20477;-42
2023/12/01 05:10:27;;;;;;;24.07;22.07;;;;;;;;;;5044440;28;20526;-42
2023/12/01 05:12:56;;;;;;;24.43;22.73;;;;;;;;;;5046642;28;20498;-40
2023/12/01 05:15:26;;;;;;;24.43;22.53;;;;;;;;;;5050092;28;20467;-45
2023/12/01 05:17:54;;;;;;;28.77;26.00;;;;;;;;;;5052310;28;21130;-41
2023/12/01 05:20:24;;;;;;;27.33;24.87;;;;;;;;;;5052652;28;20519;-43
2023/12/01 05:22:53;;;;;;;25.47;23.23;;;;;;;;;;5052389;28;20465;-39
2023/12/01 05:25:21;;;;;;;37.27;33.40;;;;;;;;;;5035391;28;20463;-42
2023/12/01 05:27:50;;;;;;;30.10;27.20;;;;;;;;;;5039307;28;20514;-41
2023/12/01 05:30:18;;;;;;;29.53;26.80;;;;;;;;;;5048894;28;20551;-39
2023/12/01 05:32:48;;;;;;;31.67;28.83;;;;;;;;;;5044941;28;20439;-41
2023/12/01 05:35:16;;;;;;;28.73;26.00;;;;;;;;;;5051657;28;20451;-40
2023/12/01 05:37:47;;;;;;;32.17;27.40;;;;;;;;;;5052263;28;20509;-39
2023/12/01 05:40:16;;;;;;;27.73;25.50;;;;;;;;;;5051514;28;20482;-43
2023/12/01 05:42:44;;;;;;;26.27;24.37;;;;;;;;;;5036961;28;20439;-41
2023/12/01 05:45:12;;;;;;;23.40;21.70;;;;;;;;;;5047834;28;20458;-42
2023/12/01 05:47:43;;;;;;;24.83;22.53;;;;;;;;;;5035650;28;20542;-42
2023/12/01 05:50:16;;;;;;;24.53;22.43;;;;;;;;;;5052192;28;20519;-42
2023/12/01 05:52:45;;;;;;;26.13;24.07;;;;;;;;;;5051495;28;20463;-43
2023/12/01 05:55:15;;;;;;;25.37;23.20;;;;;;;;;;5051220;28;20990;-39
2023/12/01 05:57:48;;;;;;;27.97;25.40;;;;;;;;;;5052051;28;20485;-42
2023/12/01 06:00:17;;;;;;;23.63;21.60;;;;;;;;;;5051801;28;20471;-38
2023/12/01 06:02:45;;;;;;;25.67;23.60;;;;;;;;;;5043455;28;20950;-39
2023/12/01 06:05:14;;;;;;;23.83;21.80;;;;;;;;;;5051404;28;20843;-42
2023/12/01 06:07:44;;;;;;;23.90;22.20;;;;;;;;;;5040010;28;20928;-41
2023/12/01 06:10:12;;;;;;;23.57;21.77;;;;;;;;;;5031950;28;20802;-39
2023/12/01 06:12:39;;;;;;;26.17;23.83;;;;;;;;;;5050789;28;20463;-43
2023/12/01 06:15:09;;;;;;;24.57;22.53;;;;;;;;;;5050844;28;21048;-43
2023/12/01 06:17:37;;;;;;;25.40;23.30;;;;;;;;;;5033613;28;21008;-43
2023/12/01 06:20:05;;;;;;;24.80;22.70;;;;;;;;;;5025440;28;21041;-39
2023/12/01 06:22:33;;;;;;;24.30;22.30;;;;;;;;;;5051006;28;20463;-40
2023/12/01 06:25:02;;;;;;;23.93;21.70;;;;;;;;;;5043122;28;20523;-39
2023/12/01 06:27:30;;;;;;;23.93;21.87;;;;;;;;;;5041151;28;20463;-42
2023/12/01 06:29:58;;;;;;;24.50;22.20;;;;;;;;;;5045130;28;21051;-41
2023/12/01 06:32:26;;;;;;;25.20;22.77;;;;;;;;;;5034937;28;20523;-43
2023/12/01 06:34:54;;;;;;;26.10;23.80;;;;;;;;;;5051022;28;20443;-42
2023/12/01 06:37:21;;;;;;;26.10;23.80;;;;;;;;;;5051128;28;20981;-42
2023/12/01 06:39:49;;;;;;;28.00;25.47;;;;;;;;;;5050722;28;20966;-39
2023/12/01 06:42:18;;;;;;;28.47;26.13;;;;;;;;;;5051283;28;20435;-40
2023/12/01 06:44:46;;;;;;;27.43;25.43;;;;;;;;;;5039513;28;21122;-42
2023/12/01 06:47:13;;;;;;;84.70;50.57;;;;;;;;;;5046291;28;20557;-43
2023/12/01 06:49:41;;;;;;;73.20;48.13;;;;;;;;;;5050252;28;20432;-40
2023/12/01 06:52:08;;;;;;;66.83;46.47;;;;;;;;;;5051223;28;20431;-45
2023/12/01 06:54:36;;;;;;;54.47;45.27;;;;;;;;;;5040081;28;20442;-42
2023/12/01 06:57:04;;;;;;;64.37;44.33;;;;;;;;;;5036572;28;20433;-40
2023/12/01 06:59:33;;;;;;;37.17;33.37;;;;;;;;;;5050201;28;20851;-41
2023/12/01 07:02:00;;;;;;;30.93;28.43;;;;;;;;;;5050730;28;20439;-45
2023/12/01 07:04:28;;;;;;;30.17;28.03;;;;;;;;;;5050357;28;20446;-42
2023/12/01 07:07:00;;;;;;;27.97;25.83;;;;;;;;;;5050919;28;20431;-40
2023/12/01 07:09:28;;;;;;;27.30;25.20;;;;;;;;;;5050346;28;20856;-41
2023/12/01 07:11:58;;;;;;;28.27;25.80;;;;;;;;;;5050718;28;21157;-41
2023/12/01 07:14:26;;;;;;;27.33;25.37;;;;;;;;;;5050263;28;20957;-40
2023/12/01 07:16:54;;;;;;;28.43;26.10;;;;;;;;;;5037873;28;20524;-44
2023/12/01 07:19:22;;;;;;;27.33;25.53;;;;;;;;;;5031779;28;20999;-40
2023/12/01 07:21:50;;;;;;;27.67;25.77;;;;;;;;;;5050243;28;20840;-39
2023/12/01 07:24:18;;;;;;;31.93;29.40;;;;;;;;;;5050437;28;21013;-45
2023/12/01 07:26:51;;;;;;;59.57;53.43;;;;;;;;;;5047220;28;20460;-40
2023/12/01 07:29:19;;;;;;;52.57;47.57;;;;;;;;;;5042565;28;20920;-42
2023/12/01 07:31:47;;;;;;;41.63;37.77;;;;;;;;;;5041905;28;20490;-43
2023/12/01 07:34:17;;;;;;;37.57;34.33;;;;;;;;;;5050594;28;20872;-40
2023/12/01 07:36:45;;;;;;;31.23;28.73;;;;;;;;;;5050040;28;20439;-40
2023/12/01 07:39:13;;;;;;;29.73;27.50;;;;;;;;;;5051243;28;20832;-39
2023/12/01 07:41:41;;;;;;;30.33;27.73;;;;;;;;;;5049447;28;20470;-45
2023/12/01 07:44:09;;;;;;;29.90;27.40;;;;;;;;;;5050428;28;20442;-43
2023/12/01 07:46:37;;;;;;;30.30;27.97;;;;;;;;;;5050627;28;20436;-42
2023/12/01 07:49:05;;;;;;;29.03;26.83;;;;;;;;;;5050426;28;20455;-39
2023/12/01 07:51:37;;;;;;;28.20;26.40;;;;;;;;;;5047989;28;20884;-42
2023/12/01 07:54:05;;;;;;;30.60;27.93;;;;;;;;;;5036243;28;20530;-42
2023/12/01 07:56:33;;;;;;;30.60;27.67;;;;;;;;;;5050731;28;20518;-40
2023/12/01 07:59:01;;;;;;;29.80;27.70;;;;;;;;;;5050434;28;20494;-40
2023/12/01 08:01:28;;;;;;;31.27;28.63;;;;;;;;;;5048773;28;20468;-42
2023/12/01 08:03:56;;;;;;;27.80;25.77;;;;;;;;;;5035317;28;20435;-41
2023/12/01 08:06:24;;;;;;;28.97;26.77;;;;;;;;;;5042059;28;20443;-39
2023/12/01 08:08:53;;;;;;;30.20;27.83;;;;;;;;;;5051451;28;20459;-43
2023/12/01 08:11:20;;;;;;;27.77;25.87;;;;;;;;;;5053393;28;20459;-42
2023/12/01 08:13:49;;;;;;;29.90;27.60;;;;;;;;;;5042227;28;20475;-42
2023/12/01 08:16:17;;;;;;;28.77;26.50;;;;;;;;;;5041467;28;21054;-42
2023/12/01 08:18:45;;;;;;;29.03;27.00;;;;;;;;;;5050485;28;21013;-43
2023/12/01 08:21:14;;;;;;;27.20;25.17;;;;;;;;;;5040197;28;20507;-40
2023/12/01 08:23:42;;;;;;;29.50;27.30;;;;;;;;;;5053474;28;20465;-42
2023/12/01 08:26:11;;;;;;;29.50;27.27;;;;;;;;;;5053733;28;20439;-39
2023/12/01 08:28:39;;;;;;;29.37;27.10;;;;;;;;;;5053088;28;20454;-41
2023/12/01 08:31:07;;;;;;;28.40;26.50;;;;;;;;;;5053022;28;20486;-42
2023/12/01 08:33:35;;;;;;;28.63;26.53;;;;;;;;;;5036591;28;20432;-44
2023/12/01 08:36:03;;;;;;;29.07;26.97;;;;;;;;;;5053312;28;20549;-42
2023/12/01 08:38:31;;;;;;;30.50;28.17;;;;;;;;;;5053451;28;21012;-42
2023/12/01 08:40:59;;;;;;;30.17;27.70;;;;;;;;;;5052868;28;21006;-41
2023/12/01 08:43:28;;;;;;;30.87;28.57;;;;;;;;;;5053107;28;20812;-42
2023/12/01 08:45:58;;;;;;;34.50;31.17;;;;;;;;;;5053284;28;20443;-42
2023/12/01 08:48:26;;;;;;;53.87;41.30;;;;;;;;;;5045110;28;20455;-39
2023/12/01 08:50:53;;;;;;;39.77;35.50;;;;;;;;;;5040575;28;20483;-40
2023/12/01 08:53:22;;;;;;;30.43;27.97;;;;;;;;;;5033219;28;20515;-45
2023/12/01 08:55:50;;;;;;;29.03;27.17;;;;;;;;;;5049653;28;20955;-41
2023/12/01 08:58:18;;;;;;;30.23;28.10;;;;;;;;;;5048509;28;20458;-45
2023/12/01 09:00:47;;;;;;;28.63;26.60;;;;;;;;;;5052225;28;20944;-44
2023/12/01 09:03:16;;;;;;;28.30;26.30;;;;;;;;;;5052657;28;21008;-41
2023/12/01 09:05:45;;;;;;;29.27;27.10;;;;;;;;;;5053270;28;20757;-44
2023/12/01 09:08:12;;;;;;;29.57;27.17;;;;;;;;;;5052199;28;20520;-41
2023/12/01 09:10:40;;;;;;;28.60;26.50;;;;;;;;;;5051598;28;21045;-41
2023/12/01 09:13:08;;;;;;;28.07;26.20;;;;;;;;;;5052054;28;20493;-40
2023/12/01 09:15:35;;;;;;;28.10;26.40;;;;;;;;;;5052565;28;20857;-42
2023/12/01 09:18:04;;;;;;;28.47;26.87;;;;;;;;;;5052054;28;20487;-43
2023/12/01 09:20:32;;;;;;;29.33;27.33;;;;;;;;;;5050959;28;20475;-43
2023/12/01 09:23:00;;;;;;;26.60;25.17;;;;;;;;;;5052097;28;20459;-43
2023/12/01 09:25:28;;;;;;;29.50;27.60;;;;;;;;;;5051768;28;20427;-42
2023/12/01 09:27:56;;;;;;;29.10;27.33;;;;;;;;;;5048160;28;20456;-42
2023/12/01 09:30:23;;;;;;;27.73;25.73;;;;;;;;;;5031659;28;20463;-45
2023/12/01 09:32:51;;;;;;;27.60;25.97;;;;;;;;;;5040158;28;21019;-44
2023/12/01 09:35:23;;;;;;;28.90;27.20;;;;;;;;;;5039073;28;20443;-40
2023/12/01 09:38:11;;;;;;;29.10;27.20;;;;;;;;;;5045714;28;20455;-41
2023/12/01 09:40:40;;;;;;;29.63;27.73;;;;;;;;;;5050151;28;20463;-41
2023/12/01 09:43:08;;;;;;;29.87;27.97;;;;;;;;;;5045608;28;20435;-41
2023/12/01 09:45:36;;;;;;;31.13;29.03;;;;;;;;;;5034918;28;20459;-44
2023/12/01 09:48:04;;;;;;;28.80;26.90;;;;;;;;;;5051516;28;20455;-44
2023/12/01 09:50:33;;;;;;;28.73;27.03;;;;;;;;;;5050642;28;20456;-41
2023/12/01 09:53:01;;;;;;;29.43;27.23;;;;;;;;;;5051231;28;20435;-44
2023/12/01 09:55:29;;;;;;;28.60;26.77;;;;;;;;;;5035126;28;20471;-43
2023/12/01 09:57:57;;;;;;;28.53;26.50;;;;;;;;;;5039747;28;20463;-47
2023/12/01 10:00:25;;;;;;;28.07;25.97;;;;;;;;;;5038751;28;20467;-42
2023/12/01 10:02:53;;;;;;;25.50;23.60;;;;;;;;;;5034644;28;20549;-41
2023/12/01 10:05:21;;;;;;;25.77;24.30;;;;;;;;;;5051424;28;20447;-40
2023/12/01 10:07:50;;;;;;;25.27;23.67;;;;;;;;;;5051207;28;20463;-41
2023/12/01 10:10:23;;;;;;;25.03;23.50;;;;;;;;;;5050890;28;20853;-41
2023/12/01 10:12:55;;;;;;;27.17;25.33;;;;;;;;;;5051260;28;20856;-45
2023/12/01 10:15:24;;;;;;;24.17;22.83;;;;;;;;;;5051753;28;20435;-43
2023/12/01 10:17:52;;;;;;;26.43;24.93;;;;;;;;;;5048121;28;20796;-40
2023/12/01 10:20:21;;;;;;;25.87;24.37;;;;;;;;;;5037672;28;20509;-43
2023/12/01 10:22:50;;;;;;;27.50;25.60;;;;;;;;;;5051071;28;20474;-45
2023/12/01 10:25:18;;;;;;;26.53;25.13;;;;;;;;;;5051281;28;20441;-43
2023/12/01 10:27:55;;;;;;;26.17;24.63;;;;;;;;;;5050903;28;20459;-42
2023/12/01 10:30:23;;;;;;;27.07;25.50;;;;;;;;;;5050468;28;20510;-44
2023/12/01 10:32:52;;;;;;;27.37;25.87;;;;;;;;;;5030388;28;20435;-42
2023/12/01 10:35:20;;;;;;;27.20;25.60;;;;;;;;;;5037510;28;20455;-40
2023/12/01 10:37:48;;;;;;;27.03;25.33;;;;;;;;;;5050729;28;20455;-41
2023/12/01 10:40:17;;;;;;;27.67;26.00;;;;;;;;;;5041856;28;20490;-42
2023/12/01 10:42:48;;;;;;;27.57;25.70;;;;;;;;;;5050405;28;20474;-41
2023/12/01 10:45:16;;;;;;;29.53;27.70;;;;;;;;;;5051084;28;20432;-41
2023/12/01 10:47:46;;;;;;;27.33;25.63;;;;;;;;;;5050513;28;20470;-42
2023/12/01 10:50:16;;;;;;;26.07;24.50;;;;;;;;;;5044431;28;20466;-46
2023/12/01 10:52:45;;;;;;;27.73;26.10;;;;;;;;;;5030564;28;20963;-49
2023/12/01 10:55:13;;;;;;;25.97;24.67;;;;;;;;;;5036158;28;20428;-46
2023/12/01 10:57:44;;;;;;;25.97;24.63;;;;;;;;;;5050128;28;20538;-41
2023/12/01 11:00:29;;;;;;;28.87;27.27;;;;;;;;;;5050282;28;20494;-41
2023/12/01 11:02:59;;;;;;;28.97;27.17;;;;;;;;;;5041403;28;20479;-48
2023/12/01 11:05:30;;;;;;;28.73;27.10;;;;;;;;;;5050483;28;20469;-42
2023/12/01 11:08:06;;;;;;;28.87;27.07;;;;;;;;;;5050362;28;20465;-43
2023/12/01 11:10:41;;;;;;;26.40;25.20;;;;;;;;;;5049982;28;20557;-44
2023/12/01 11:13:23;;;;;;;27.20;25.80;;;;;;;;;;5050401;28;20462;-42
2023/12/01 11:15:53;;;;;;;28.37;26.87;;;;;;;;;;5050361;28;20431;-43
2023/12/01 11:18:21;;;;;;;27.60;26.00;;;;;;;;;;5043978;28;20467;-41
2023/12/01 11:20:49;;;;;;;25.70;24.20;;;;;;;;;;5040807;28;20455;-43
2023/12/01 11:23:24;;;;;;;26.20;24.73;;;;;;;;;;5050107;28;20475;-43
2023/12/01 11:25:54;;;;;;;26.80;25.30;;;;;;;;;;5050196;28;20811;-42
2023/12/01 11:28:28;;;;;;;28.40;26.80;;;;;;;;;;5050097;28;20541;-41
2023/12/01 11:31:08;;;;;;;29.03;27.53;;;;;;;;;;5049579;28;20808;-45
2023/12/01 11:33:39;;;;;;;29.90;27.07;;;;;;;;;;5050013;28;20442;-41
2023/12/01 11:36:27;;;;;;;28.23;26.73;;;;;;;;;;5050162;28;20879;-42
2023/12/01 11:39:20;;;;;;;28.30;26.70;;;;;;;;;;5050177;28;20465;-42
2023/12/01 11:41:48;;;;;;;27.07;25.53;;;;;;;;;;5012250;28;20472;-41
2023/12/01 11:44:18;;;;;;;26.43;25.03;;;;;;;;;;5046237;28;20940;-46
2023/12/01 11:46:47;;;;;;;27.17;25.77;;;;;;;;;;5044341;28;20527;-43
2023/12/01 11:49:15;;;;;;;26.30;25.00;;;;;;;;;;5039406;28;20431;-47
2023/12/01 11:51:44;;;;;;;27.10;25.70;;;;;;;;;;5053436;28;20459;-43
2023/12/01 11:54:12;;;;;;;26.60;25.13;;;;;;;;;;5053364;28;20441;-42
2023/12/01 11:56:40;;;;;;;27.87;26.30;;;;;;;;;;5053943;28;20458;-47
2023/12/01 11:59:09;;;;;;;27.00;25.53;;;;;;;;;;5053419;28;21017;-45
2023/12/01 12:01:38;;;;;;;27.23;25.83;;;;;;;;;;5044646;28;20521;-42
2023/12/01 12:04:09;;;;;;;26.30;24.80;;;;;;;;;;5053370;28;20555;-41
2023/12/01 12:06:37;;;;;;;26.13;24.83;;;;;;;;;;5053504;28;20439;-44
2023/12/01 12:09:08;;;;;;;25.07;23.73;;;;;;;;;;5051288;28;20911;-39
2023/12/01 12:11:36;;;;;;;26.40;24.80;;;;;;;;;;5052953;28;20521;-41
2023/12/01 12:14:05;;;;;;;27.73;26.00;;;;;;;;;;5045128;28;20446;-40
2023/12/01 12:16:33;;;;;;;27.33;26.00;;;;;;;;;;5037390;28;20432;-42
2023/12/01 12:19:02;;;;;;;28.80;27.20;;;;;;;;;;5035974;28;20478;-40
2023/12/01 12:21:31;;;;;;;27.20;25.60;;;;;;;;;;5051253;28;20459;-40
2023/12/01 12:24:00;;;;;;;29.07;27.37;;;;;;;;;;5053234;28;20853;-42
2023/12/01 12:26:28;;;;;;;26.67;25.13;;;;;;;;;;5053214;28;20801;-41
2023/12/01 12:28:55;;;;;;;27.77;26.17;;;;;;;;;;5052991;28;20466;-40
2023/12/01 12:31:27;;;;;;;27.77;26.27;;;;;;;;;;5052850;28;20530;-40
2023/12/01 12:33:56;;;;;;;28.73;26.87;;;;;;;;;;5052572;28;20981;-40
2023/12/01 12:36:27;;;;;;;29.10;27.27;;;;;;;;;;5052980;28;20970;-44
2023/12/01 12:38:54;;;;;;;27.77;26.07;;;;;;;;;;5052883;28;20533;-39
2023/12/01 12:41:23;;;;;;;27.87;26.27;;;;;;;;;;5052292;28;20853;-42
2023/12/01 12:43:55;;;;;;;26.37;24.70;;;;;;;;;;5052617;28;20578;-40
2023/12/01 12:46:23;;;;;;;27.30;25.50;;;;;;;;;;5053027;28;20862;-41
2023/12/01 12:48:55;;;;;;;28.30;26.17;;;;;;;;;;5052713;28;21014;-39
2023/12/01 12:51:24;;;;;;;26.97;25.47;;;;;;;;;;5046343;28;20468;-42
2023/12/01 12:53:53;;;;;;;28.70;26.90;;;;;;;;;;5050532;28;20442;-40
2023/12/01 12:56:22;;;;;;;27.47;25.87;;;;;;;;;;5051920;28;20481;-42
2023/12/01 12:58:50;;;;;;;29.03;27.00;;;;;;;;;;5052785;28;20459;-40
2023/12/01 13:01:18;;;;;;;29.37;27.57;;;;;;;;;;5051774;28;20546;-40
2023/12/01 13:03:45;;;;;;;28.93;26.97;;;;;;;;;;5052230;28;20478;-43
2023/12/01 13:06:16;;;;;;;28.57;26.93;;;;;;;;;;5052606;28;20438;-45
2023/12/01 13:08:44;;;;;;;27.67;25.67;;;;;;;;;;5051100;28;20465;-41
2023/12/01 13:11:13;;;;;;;28.03;26.13;;;;;;;;;;5051007;28;20458;-40
2023/12/01 13:13:42;;;;;;;28.07;26.50;;;;;;;;;;5052028;28;20458;-40
2023/12/01 13:16:10;;;;;;;28.50;26.20;;;;;;;;;;5052549;28;20436;-40
2023/12/01 13:18:39;;;;;;;26.30;24.70;;;;;;;;;;5051973;28;20831;-40
2023/12/01 13:21:08;;;;;;;27.20;25.40;;;;;;;;;;5051140;28;20502;-39
2023/12/01 13:23:38;;;;;;;26.80;24.90;;;;;;;;;;5051718;28;20475;-41
2023/12/01 13:26:06;;;;;;;26.77;24.77;;;;;;;;;;5051993;28;20458;-41
2023/12/01 13:28:35;;;;;;;26.43;24.83;;;;;;;;;;5051761;28;20482;-43
2023/12/01 13:31:03;;;;;;;25.87;24.20;;;;;;;;;;5051093;28;20467;-41
2023/12/01 13:33:31;;;;;;;28.53;26.73;;;;;;;;;;5049550;28;20459;-41
2023/12/01 13:35:59;;;;;;;29.43;27.33;;;;;;;;;;5051634;28;20526;-41
2023/12/01 13:38:26;;;;;;;28.60;26.60;;;;;;;;;;5051420;28;20502;-40
2023/12/01 13:40:54;;;;;;;28.67;26.87;;;;;;;;;;5050711;28;20513;-40
2023/12/01 13:43:22;;;;;;;27.17;25.40;;;;;;;;;;5051150;28;20479;-39
2023/12/01 13:45:51;;;;;;;27.40;25.57;;;;;;;;;;5051191;28;20811;-40
2023/12/01 13:48:21;;;;;;;28.20;26.00;;;;;;;;;;5051277;28;20462;-41
2023/12/01 13:50:49;;;;;;;28.43;26.53;;;;;;;;;;5050834;28;20994;-41
2023/12/01 13:53:17;;;;;;;27.70;26.00;;;;;;;;;;5051250;28;20440;-42
2023/12/01 13:55:45;;;;;;;28.40;26.27;;;;;;;;;;5051652;28;20474;-41
2023/12/01 13:58:18;;;;;;;28.97;27.10;;;;;;;;;;5051318;28;20458;-42
2023/12/01 14:00:48;;;;;;;27.07;25.37;;;;;;;;;;5050673;28;20459;-40
2023/12/01 14:03:17;;;;;;;28.57;26.03;;;;;;;;;;5050989;28;21030;-43
2023/12/01 14:05:56;;;;;;;26.40;24.60;;;;;;;;;;5050757;28;20427;-41
2023/12/01 14:08:24;;;;;;;27.03;25.00;;;;;;;;;;5050672;28;20540;-43
2023/12/01 14:10:52;;;;;;;28.37;26.57;;;;;;;;;;5050619;28;20466;-40
2023/12/01 14:13:19;;;;;;;27.80;25.93;;;;;;;;;;5050528;28;20852;-40
2023/12/01 14:15:47;;;;;;;27.27;25.43;;;;;;;;;;5050802;28;20565;-40
2023/12/01 14:18:16;;;;;;;27.50;25.60;;;;;;;;;;5051108;28;20455;-40
2023/12/01 14:20:44;;;;;;;31.13;28.90;;;;;;;;;;5050524;28;20466;-43
2023/12/01 14:23:12;;;;;;;27.77;25.80;;;;;;;;;;5050906;28;20558;-42
2023/12/01 14:25:39;;;;;;;28.30;26.50;;;;;;;;;;5050920;28;20436;-40